createdAt,value
2019-01-04T00:00:30.782Z,0.00
2019-01-04T00:01:30.769Z,0.00
2019-01-04T00:02:30.770Z,0.00
2019-01-04T00:03:30.747Z,0.00
2019-01-04T00:04:30.735Z,0.00
2019-01-04T00:05:30.727Z,0.00
2019-01-04T00:06:30.716Z,0.00
2019-01-04T00:07:30.717Z,0.00
2019-01-04T00:08:30.696Z,0.00
2019-01-04T00:09:30.692Z,0.00
2019-01-04T00:10:30.671Z,0.00
2019-01-04T00:11:30.661Z,0.00
2019-01-04T00:12:30.657Z,0.00
2019-01-04T00:13:30.639Z,0.00
2019-01-04T00:14:30.631Z,0.00
2019-01-04T00:15:30.617Z,0.00
2019-01-04T00:16:30.609Z,0.00
2019-01-04T00:17:30.605Z,0.00
2019-01-04T00:18:30.618Z,0.00
2019-01-04T00:19:30.577Z,0.00
2019-01-04T00:20:30.564Z,0.00
2019-01-04T00:21:30.553Z,0.00
2019-01-04T00:22:30.551Z,0.00
2019-01-04T00:23:30.534Z,0.00
2019-01-04T00:24:30.521Z,0.00
2019-01-04T00:25:30.511Z,0.00
2019-01-04T00:26:30.508Z,0.00
2019-01-04T00:27:30.515Z,0.00
2019-01-04T00:28:30.480Z,0.00
2019-01-04T00:29:30.467Z,0.00
2019-01-04T00:30:30.463Z,0.00
2019-01-04T00:31:30.446Z,0.00
2019-01-04T00:32:30.434Z,0.00
2019-01-04T00:33:30.433Z,0.00
2019-01-04T00:34:30.413Z,0.00
2019-01-04T00:35:30.406Z,0.00
2019-01-04T00:36:30.392Z,0.00
2019-01-04T00:37:30.381Z,0.00
2019-01-04T00:38:30.380Z,0.00
2019-01-04T00:39:30.359Z,0.00
2019-01-04T00:40:30.350Z,0.00
2019-01-04T00:41:30.338Z,0.00
2019-01-04T00:42:30.329Z,0.00
2019-01-04T00:43:30.327Z,0.00
2019-01-04T00:44:30.305Z,0.00
2019-01-04T00:45:30.295Z,0.00
2019-01-04T00:46:30.295Z,0.00
2019-01-04T00:47:30.277Z,0.00
2019-01-04T00:48:30.276Z,0.00
2019-01-04T00:49:30.253Z,0.00
2019-01-04T00:50:30.242Z,0.00
2019-01-04T00:51:30.231Z,0.00
2019-01-04T00:52:30.220Z,0.00
2019-01-04T00:53:30.221Z,0.00
2019-01-04T00:54:30.202Z,0.00
2019-01-04T00:55:30.193Z,0.00
2019-01-04T00:56:30.178Z,0.00
2019-01-04T00:57:30.170Z,0.00
2019-01-04T00:58:30.166Z,0.00
2019-01-04T00:59:30.148Z,0.00
2019-01-04T01:00:30.136Z,0.00
2019-01-04T01:01:30.126Z,0.00
2019-01-04T01:02:30.114Z,0.00
2019-01-04T01:03:30.116Z,0.00
2019-01-04T01:04:30.098Z,0.00
2019-01-04T01:05:30.083Z,0.00
2019-01-04T01:06:30.072Z,0.00
2019-01-04T01:07:30.064Z,0.00
2019-01-04T01:08:30.059Z,0.00
2019-01-04T01:09:30.039Z,0.00
2019-01-04T01:10:30.028Z,0.00
2019-01-04T01:11:30.018Z,0.00
2019-01-04T01:12:30.007Z,0.00
2019-01-04T01:13:30.006Z,0.00
2019-01-04T01:14:29.986Z,0.00
2019-01-04T01:15:29.975Z,0.00
2019-01-04T01:16:29.966Z,0.00
2019-01-04T01:17:29.953Z,0.00
2019-01-04T01:18:29.951Z,0.00
2019-01-04T01:19:29.935Z,0.00
2019-01-04T01:20:29.922Z,0.00
2019-01-04T01:21:29.911Z,0.00
2019-01-04T01:22:29.901Z,0.00
2019-01-04T01:23:29.900Z,0.00
2019-01-04T01:24:29.881Z,0.00
2019-01-04T01:25:29.875Z,0.00
2019-01-04T01:26:29.859Z,0.00
2019-01-04T01:27:29.849Z,0.00
2019-01-04T01:28:29.862Z,0.00
2019-01-04T01:29:29.828Z,0.00
2019-01-04T01:30:29.816Z,0.00
2019-01-04T01:31:29.805Z,0.00
2019-01-04T01:32:29.794Z,0.00
2019-01-04T01:33:29.785Z,0.00
2019-01-04T01:34:29.780Z,0.00
2019-01-04T01:35:29.761Z,0.00
2019-01-04T01:36:29.754Z,0.00
2019-01-04T01:37:29.743Z,0.00
2019-01-04T01:38:29.732Z,0.00
2019-01-04T01:39:29.729Z,0.00
2019-01-04T01:40:29.708Z,0.00
2019-01-04T01:41:29.697Z,0.00
2019-01-04T01:42:29.689Z,0.00
2019-01-04T01:43:29.676Z,0.00
2019-01-04T01:44:29.677Z,0.00
2019-01-04T01:45:29.657Z,0.00
2019-01-04T01:46:29.644Z,0.00
2019-01-04T01:47:29.636Z,0.00
2019-01-04T01:48:29.625Z,0.00
2019-01-04T01:49:29.623Z,0.00
2019-01-04T01:50:29.602Z,0.00
2019-01-04T01:51:29.591Z,0.00
2019-01-04T01:52:29.580Z,0.00
2019-01-04T01:53:29.573Z,0.00
2019-01-04T01:54:29.569Z,0.00
2019-01-04T01:55:29.550Z,0.00
2019-01-04T01:56:29.539Z,0.00
2019-01-04T01:57:29.529Z,0.00
2019-01-04T01:58:29.517Z,0.00
2019-01-04T01:59:29.516Z,0.00
2019-01-04T02:00:29.497Z,0.00
2019-01-04T02:01:29.491Z,0.00
2019-01-04T02:02:29.476Z,0.00
2019-01-04T02:03:29.465Z,0.00
2019-01-04T02:04:29.462Z,0.00
2019-01-04T02:05:29.444Z,0.00
2019-01-04T02:06:29.436Z,0.00
2019-01-04T02:07:29.422Z,0.00
2019-01-04T02:08:29.410Z,0.00
2019-01-04T02:09:29.409Z,0.00
2019-01-04T02:10:29.391Z,0.00
2019-01-04T02:11:29.381Z,0.00
2019-01-04T02:12:29.369Z,0.00
2019-01-04T02:13:29.359Z,0.00
2019-01-04T02:14:29.354Z,0.00
2019-01-04T02:15:29.341Z,0.00
2019-01-04T02:16:29.328Z,0.00
2019-01-04T02:17:29.316Z,0.00
2019-01-04T02:18:29.304Z,0.00
2019-01-04T02:19:29.305Z,0.00
2019-01-04T02:20:29.282Z,0.00
2019-01-04T02:21:29.272Z,0.00
2019-01-04T02:22:29.262Z,0.00
2019-01-04T02:23:29.255Z,0.00
2019-01-04T02:24:29.268Z,0.00
2019-01-04T02:25:29.235Z,0.00
2019-01-04T02:26:29.220Z,0.00
2019-01-04T02:27:29.208Z,0.00
2019-01-04T02:28:29.202Z,0.00
2019-01-04T02:29:29.187Z,0.00
2019-01-04T02:30:29.185Z,0.00
2019-01-04T02:31:29.166Z,0.00
2019-01-04T02:32:29.162Z,0.00
2019-01-04T02:33:29.144Z,0.00
2019-01-04T02:34:29.135Z,0.00
2019-01-04T02:35:29.131Z,0.00
2019-01-04T02:36:29.115Z,0.00
2019-01-04T02:37:29.106Z,0.00
2019-01-04T02:38:29.093Z,0.00
2019-01-04T02:39:29.081Z,0.00
2019-01-04T02:40:29.086Z,0.00
2019-01-04T02:41:29.064Z,0.00
2019-01-04T02:42:29.051Z,0.00
2019-01-04T02:43:29.039Z,0.00
2019-01-04T02:44:29.029Z,0.00
2019-01-04T02:45:29.028Z,0.00
2019-01-04T02:46:29.012Z,0.00
2019-01-04T02:47:28.997Z,0.00
2019-01-04T02:48:28.990Z,0.00
2019-01-04T02:49:28.975Z,0.00
2019-01-04T02:50:28.976Z,0.00
2019-01-04T02:51:28.956Z,0.00
2019-01-04T02:52:28.944Z,0.00
2019-01-04T02:53:28.958Z,0.00
2019-01-04T02:54:28.923Z,0.00
2019-01-04T02:55:28.955Z,0.00
2019-01-04T02:56:28.907Z,0.00
2019-01-04T02:57:28.892Z,0.00
2019-01-04T02:58:28.881Z,0.00
2019-01-04T02:59:28.869Z,0.00
2019-01-04T03:00:28.861Z,0.00
2019-01-04T03:01:28.856Z,0.00
2019-01-04T03:02:28.846Z,0.00
2019-01-04T03:03:28.830Z,0.00
2019-01-04T03:04:28.816Z,0.00
2019-01-04T03:05:28.805Z,0.00
2019-01-04T03:06:28.802Z,0.00
2019-01-04T03:07:28.791Z,0.00
2019-01-04T03:08:28.774Z,0.00
2019-01-04T03:09:28.763Z,0.00
2019-01-04T03:10:28.758Z,0.00
2019-01-04T03:11:28.756Z,0.00
2019-01-04T03:12:28.730Z,0.00
2019-01-04T03:13:28.766Z,0.00
2019-01-04T03:14:28.712Z,0.00
2019-01-04T03:15:28.700Z,0.00
2019-01-04T03:16:28.699Z,0.00
2019-01-04T03:17:28.677Z,0.00
2019-01-04T03:18:28.668Z,0.00
2019-01-04T03:19:28.658Z,0.00
2019-01-04T03:20:28.647Z,0.00
2019-01-04T03:21:28.645Z,0.00
2019-01-04T03:22:28.628Z,0.00
2019-01-04T03:23:28.619Z,0.00
2019-01-04T03:24:28.616Z,0.00
2019-01-04T03:25:28.596Z,0.00
2019-01-04T03:26:28.599Z,0.00
2019-01-04T03:27:28.572Z,0.00
2019-01-04T03:28:28.562Z,0.00
2019-01-04T03:29:28.551Z,0.00
2019-01-04T03:30:28.543Z,0.00
2019-01-04T03:31:28.548Z,0.00
2019-01-04T03:32:28.522Z,0.00
2019-01-04T03:33:28.510Z,0.00
2019-01-04T03:34:28.501Z,0.00
2019-01-04T03:35:28.490Z,0.00
2019-01-04T03:36:28.494Z,0.00
2019-01-04T03:37:28.470Z,0.00
2019-01-04T03:38:28.478Z,0.00
2019-01-04T03:39:28.448Z,0.00
2019-01-04T03:40:28.439Z,0.00
2019-01-04T03:41:28.451Z,0.00
2019-01-04T03:42:28.416Z,0.00
2019-01-04T03:43:28.407Z,0.00
2019-01-04T03:44:28.393Z,0.00
2019-01-04T03:45:28.383Z,0.00
2019-01-04T03:46:28.372Z,0.00
2019-01-04T03:47:28.371Z,0.00
2019-01-04T03:48:28.354Z,0.00
2019-01-04T03:49:28.340Z,0.00
2019-01-04T03:50:28.330Z,0.00
2019-01-04T03:51:28.319Z,0.00
2019-01-04T03:52:28.332Z,0.00
2019-01-04T03:53:28.300Z,0.00
2019-01-04T03:54:28.289Z,0.00
2019-01-04T03:55:28.278Z,0.00
2019-01-04T03:56:28.274Z,0.00
2019-01-04T03:57:28.270Z,0.00
2019-01-04T03:58:28.246Z,0.00
2019-01-04T03:59:28.238Z,0.00
2019-01-04T04:00:28.225Z,0.00
2019-01-04T04:01:28.214Z,0.00
2019-01-04T04:02:28.213Z,0.00
2019-01-04T04:03:28.193Z,0.00
2019-01-04T04:04:28.184Z,0.00
2019-01-04T04:05:28.171Z,0.00
2019-01-04T04:06:28.161Z,0.00
2019-01-04T04:07:28.184Z,0.00
2019-01-04T04:08:28.142Z,0.00
2019-01-04T04:09:28.131Z,0.00
2019-01-04T04:10:28.120Z,0.00
2019-01-04T04:11:28.108Z,0.00
2019-01-04T04:12:28.099Z,0.00
2019-01-04T04:13:28.095Z,0.00
2019-01-04T04:14:28.076Z,0.00
2019-01-04T04:15:28.066Z,0.00
2019-01-04T04:16:28.055Z,0.00
2019-01-04T04:17:28.044Z,0.00
2019-01-04T04:18:28.048Z,0.00
2019-01-04T04:19:28.023Z,0.00
2019-01-04T04:20:28.015Z,0.00
2019-01-04T04:21:28.002Z,0.00
2019-01-04T04:22:28.011Z,0.00
2019-01-04T04:23:27.995Z,0.00
2019-01-04T04:24:27.973Z,0.00
2019-01-04T04:25:27.961Z,0.00
2019-01-04T04:26:27.955Z,0.00
2019-01-04T04:27:27.940Z,0.00
2019-01-04T04:28:27.937Z,0.00
2019-01-04T04:29:27.918Z,0.00
2019-01-04T04:30:27.915Z,0.00
2019-01-04T04:31:27.897Z,0.00
2019-01-04T04:32:27.888Z,0.00
2019-01-04T04:33:27.884Z,0.00
2019-01-04T04:34:27.865Z,0.00
2019-01-04T04:35:27.855Z,0.00
2019-01-04T04:36:27.849Z,0.00
2019-01-04T04:37:27.836Z,0.00
2019-01-04T04:38:27.831Z,0.00
2019-01-04T04:39:27.816Z,0.00
2019-01-04T04:40:27.804Z,0.00
2019-01-04T04:41:27.794Z,0.00
2019-01-04T04:42:27.780Z,0.00
2019-01-04T04:43:27.797Z,0.00
2019-01-04T04:44:27.767Z,0.00
2019-01-04T04:45:27.748Z,0.00
2019-01-04T04:46:27.744Z,0.00
2019-01-04T04:47:27.728Z,0.00
2019-01-04T04:48:27.717Z,0.00
2019-01-04T04:49:27.714Z,0.00
2019-01-04T04:50:27.696Z,0.00
2019-01-04T04:51:27.686Z,0.00
2019-01-04T04:52:27.674Z,0.00
2019-01-04T04:53:27.665Z,0.00
2019-01-04T04:54:27.664Z,0.00
2019-01-04T04:55:27.647Z,0.00
2019-01-04T04:56:27.632Z,0.00
2019-01-04T04:57:27.623Z,0.00
2019-01-04T04:58:27.613Z,0.00
2019-01-04T04:59:27.610Z,0.00
2019-01-04T05:00:27.590Z,0.00
2019-01-04T05:01:27.580Z,0.00
2019-01-04T05:02:27.568Z,0.00
2019-01-04T05:03:27.559Z,0.00
2019-01-04T05:04:27.558Z,0.00
2019-01-04T05:05:27.538Z,0.00
2019-01-04T05:06:27.528Z,0.00
2019-01-04T05:07:27.517Z,0.00
2019-01-04T05:08:27.508Z,0.00
2019-01-04T05:09:27.507Z,0.00
2019-01-04T05:10:27.483Z,0.00
2019-01-04T05:11:27.475Z,0.00
2019-01-04T05:12:27.462Z,0.00
2019-01-04T05:13:27.456Z,0.00
2019-01-04T05:14:27.468Z,0.00
2019-01-04T05:15:27.431Z,0.00
2019-01-04T05:16:27.420Z,0.00
2019-01-04T05:17:27.416Z,0.00
2019-01-04T05:18:27.401Z,0.00
2019-01-04T05:19:27.389Z,0.00
2019-01-04T05:20:27.388Z,0.00
2019-01-04T05:21:27.367Z,0.00
2019-01-04T05:22:27.358Z,0.00
2019-01-04T05:23:27.357Z,0.00
2019-01-04T05:24:27.338Z,0.00
2019-01-04T05:25:27.333Z,0.00
2019-01-04T05:26:27.316Z,0.00
2019-01-04T05:27:27.306Z,0.00
2019-01-04T05:28:27.297Z,0.00
2019-01-04T05:29:27.292Z,0.00
2019-01-04T05:30:27.282Z,0.00
2019-01-04T05:31:27.262Z,0.00
2019-01-04T05:32:27.257Z,0.00
2019-01-04T05:33:27.245Z,0.00
2019-01-04T05:34:27.235Z,0.00
2019-01-04T05:35:27.229Z,0.00
2019-01-04T05:36:27.209Z,0.00
2019-01-04T05:37:27.202Z,0.00
2019-01-04T05:38:27.197Z,0.00
2019-01-04T05:39:27.185Z,0.00
2019-01-04T05:40:27.176Z,0.00
2019-01-04T05:41:27.159Z,0.00
2019-01-04T05:42:27.146Z,0.00
2019-01-04T05:43:27.139Z,0.00
2019-01-04T05:44:27.127Z,0.00
2019-01-04T05:45:27.124Z,0.00
2019-01-04T05:46:27.105Z,0.00
2019-01-04T05:47:27.095Z,0.00
2019-01-04T05:48:27.085Z,0.00
2019-01-04T05:49:27.072Z,0.00
2019-01-04T05:50:27.070Z,0.00
2019-01-04T05:51:28.541Z,0.00
2019-01-04T05:52:27.042Z,0.00
2019-01-04T05:53:27.029Z,0.00
2019-01-04T05:54:27.021Z,0.00
2019-01-04T05:55:27.051Z,0.00
2019-01-04T05:56:26.998Z,0.00
2019-01-04T05:57:26.987Z,0.00
2019-01-04T05:58:26.978Z,0.00
2019-01-04T05:59:26.966Z,0.00
2019-01-04T06:00:26.955Z,0.00
2019-01-04T06:01:26.954Z,0.00
2019-01-04T06:02:26.937Z,0.00
2019-01-04T06:03:28.177Z,0.00
2019-01-04T06:04:26.921Z,0.00
2019-01-04T06:05:26.903Z,0.00
2019-01-04T06:06:26.902Z,0.00
2019-01-04T06:07:26.883Z,0.00
2019-01-04T06:08:26.872Z,0.00
2019-01-04T06:09:26.862Z,0.00
2019-01-04T06:10:26.854Z,0.00
2019-01-04T06:11:26.850Z,0.00
2019-01-04T06:12:26.830Z,0.00
2019-01-04T06:13:26.820Z,0.00
2019-01-04T06:14:26.809Z,0.00
2019-01-04T06:15:26.800Z,0.00
2019-01-04T06:16:26.812Z,0.00
2019-01-04T06:17:26.778Z,0.00
2019-01-04T06:18:26.764Z,0.00
2019-01-04T06:19:26.755Z,0.00
2019-01-04T06:20:26.753Z,0.00
2019-01-04T06:21:26.739Z,0.00
2019-01-04T06:22:26.735Z,0.00
2019-01-04T06:23:26.713Z,0.00
2019-01-04T06:24:26.703Z,0.00
2019-01-04T06:25:26.692Z,0.00
2019-01-04T06:26:26.685Z,0.00
2019-01-04T06:27:26.679Z,0.00
2019-01-04T06:28:26.668Z,0.00
2019-01-04T06:29:26.651Z,0.00
2019-01-04T06:30:26.640Z,0.00
2019-01-04T06:31:26.630Z,0.00
2019-01-04T06:32:26.627Z,0.00
2019-01-04T06:33:26.609Z,0.00
2019-01-04T06:34:26.598Z,0.00
2019-01-04T06:35:26.592Z,0.00
2019-01-04T06:36:26.579Z,0.00
2019-01-04T06:37:26.592Z,0.00
2019-01-04T06:38:26.556Z,0.00
2019-01-04T06:39:26.544Z,0.00
2019-01-04T06:40:26.533Z,0.00
2019-01-04T06:41:26.524Z,0.00
2019-01-04T06:42:26.515Z,0.00
2019-01-04T06:43:26.510Z,0.00
2019-01-04T06:44:26.492Z,0.00
2019-01-04T06:45:26.480Z,0.00
2019-01-04T06:46:26.471Z,0.00
2019-01-04T06:47:26.465Z,0.00
2019-01-04T06:48:26.455Z,0.00
2019-01-04T06:49:26.438Z,4.00
2019-01-04T06:50:26.427Z,4.00
2019-01-04T06:51:27.994Z,4.00
2019-01-04T06:52:26.406Z,0.00
2019-01-04T06:53:26.406Z,0.00
2019-01-04T06:54:26.385Z,4.00
2019-01-04T06:55:26.376Z,4.00
2019-01-04T06:56:26.365Z,4.00
2019-01-04T06:57:26.356Z,4.00
2019-01-04T06:58:26.351Z,4.00
2019-01-04T06:59:26.332Z,8.00
2019-01-04T07:00:26.326Z,4.00
2019-01-04T07:01:26.314Z,4.00
2019-01-04T07:02:26.300Z,4.00
2019-01-04T07:03:26.299Z,8.00
2019-01-04T07:04:26.281Z,8.00
2019-01-04T07:05:26.268Z,12.00
2019-01-04T07:06:26.259Z,12.00
2019-01-04T07:07:26.247Z,12.00
2019-01-04T07:08:26.245Z,12.00
2019-01-04T07:09:26.227Z,12.00
2019-01-04T07:10:26.215Z,12.00
2019-01-04T07:11:26.204Z,12.00
2019-01-04T07:12:26.195Z,16.00
2019-01-04T07:13:26.192Z,16.00
2019-01-04T07:14:26.176Z,16.00
2019-01-04T07:15:26.165Z,16.00
2019-01-04T07:16:26.154Z,16.00
2019-01-04T07:17:26.141Z,20.00
2019-01-04T07:18:26.142Z,20.00
2019-01-04T07:19:26.119Z,20.00
2019-01-04T07:20:26.114Z,20.00
2019-01-04T07:21:26.099Z,24.00
2019-01-04T07:22:26.091Z,28.00
2019-01-04T07:23:26.087Z,32.00
2019-01-04T07:24:26.071Z,32.00
2019-01-04T07:25:26.057Z,36.00
2019-01-04T07:26:26.046Z,40.00
2019-01-04T07:27:26.037Z,36.00
2019-01-04T07:28:26.061Z,40.00
2019-01-04T07:29:26.017Z,48.00
2019-01-04T07:30:26.003Z,44.00
2019-01-04T07:31:25.994Z,48.00
2019-01-04T07:32:25.984Z,48.00
2019-01-04T07:33:25.971Z,48.00
2019-01-04T07:34:25.970Z,48.00
2019-01-04T07:35:25.951Z,52.00
2019-01-04T07:36:25.940Z,60.00
2019-01-04T07:37:25.929Z,56.00
2019-01-04T07:38:25.930Z,64.00
2019-01-04T07:39:25.918Z,56.00
2019-01-04T07:40:25.903Z,60.00
2019-01-04T07:41:25.889Z,68.00
2019-01-04T07:42:25.878Z,68.00
2019-01-04T07:43:25.867Z,72.00
2019-01-04T07:44:25.864Z,76.00
2019-01-04T07:45:25.844Z,76.00
2019-01-04T07:46:25.835Z,72.00
2019-01-04T07:47:25.824Z,76.00
2019-01-04T07:48:25.814Z,76.00
2019-01-04T07:49:25.811Z,68.00
2019-01-04T07:50:25.797Z,64.00
2019-01-04T07:51:25.781Z,68.00
2019-01-04T07:52:25.771Z,72.00
2019-01-04T07:53:25.762Z,76.00
2019-01-04T07:54:25.788Z,84.00
2019-01-04T07:55:25.739Z,88.00
2019-01-04T07:56:25.730Z,92.00
2019-01-04T07:57:25.719Z,96.00
2019-01-04T07:58:25.707Z,96.00
2019-01-04T07:59:25.708Z,100.00
2019-01-04T08:00:25.695Z,116.00
2019-01-04T08:01:25.677Z,116.00
2019-01-04T08:02:25.665Z,124.00
2019-01-04T08:03:25.656Z,120.00
2019-01-04T08:04:25.679Z,128.00
2019-01-04T08:05:25.634Z,136.00
2019-01-04T08:06:25.624Z,132.00
2019-01-04T08:07:25.612Z,140.00
2019-01-04T08:08:25.604Z,140.00
2019-01-04T08:09:25.591Z,152.00
2019-01-04T08:10:25.589Z,144.00
2019-01-04T08:11:25.572Z,144.00
2019-01-04T08:12:25.560Z,152.00
2019-01-04T08:13:25.549Z,160.00
2019-01-04T08:14:25.539Z,164.00
2019-01-04T08:15:25.538Z,168.00
2019-01-04T08:16:25.520Z,180.00
2019-01-04T08:17:25.510Z,180.00
2019-01-04T08:18:25.497Z,184.00
2019-01-04T08:19:25.488Z,220.00
2019-01-04T08:20:25.483Z,232.00
2019-01-04T08:21:25.467Z,220.00
2019-01-04T08:22:25.455Z,204.00
2019-01-04T08:23:25.443Z,220.00
2019-01-04T08:24:25.435Z,224.00
2019-01-04T08:25:25.433Z,228.00
2019-01-04T08:26:25.412Z,228.00
2019-01-04T08:27:25.405Z,220.00
2019-01-04T08:28:25.392Z,224.00
2019-01-04T08:29:25.382Z,244.00
2019-01-04T08:30:25.381Z,240.00
2019-01-04T08:31:25.364Z,232.00
2019-01-04T08:32:25.351Z,244.00
2019-01-04T08:33:25.338Z,248.00
2019-01-04T08:34:25.328Z,228.00
2019-01-04T08:35:25.327Z,208.00
2019-01-04T08:36:25.309Z,204.00
2019-01-04T08:37:25.300Z,200.00
2019-01-04T08:38:25.286Z,180.00
2019-01-04T08:39:25.275Z,184.00
2019-01-04T08:40:25.301Z,184.00
2019-01-04T08:41:25.255Z,180.00
2019-01-04T08:42:25.248Z,172.00
2019-01-04T08:43:25.234Z,192.00
2019-01-04T08:44:25.222Z,216.00
2019-01-04T08:45:25.213Z,232.00
2019-01-04T08:46:25.211Z,228.00
2019-01-04T08:47:25.194Z,260.00
2019-01-04T08:48:25.180Z,256.00
2019-01-04T08:49:25.170Z,256.00
2019-01-04T08:50:25.162Z,284.00
2019-01-04T08:51:25.157Z,304.00
2019-01-04T08:52:25.138Z,288.00
2019-01-04T08:53:25.129Z,328.00
2019-01-04T08:54:25.119Z,356.00
2019-01-04T08:55:25.106Z,360.00
2019-01-04T08:56:25.133Z,392.00
2019-01-04T08:57:25.084Z,360.00
2019-01-04T08:58:25.076Z,340.00
2019-01-04T08:59:25.063Z,320.00
2019-01-04T09:00:25.063Z,312.00
2019-01-04T09:01:25.043Z,348.00
2019-01-04T09:02:25.041Z,344.00
2019-01-04T09:03:25.021Z,328.00
2019-01-04T09:04:25.015Z,344.00
2019-01-04T09:05:25.000Z,356.00
2019-01-04T09:06:24.989Z,372.00
2019-01-04T09:07:24.988Z,432.00
2019-01-04T09:08:24.970Z,480.00
2019-01-04T09:09:24.959Z,528.00
2019-01-04T09:10:24.951Z,476.00
2019-01-04T09:11:24.940Z,440.00
2019-01-04T09:12:24.934Z,492.00
2019-01-04T09:13:24.917Z,540.00
2019-01-04T09:14:24.909Z,676.00
2019-01-04T09:15:24.894Z,696.00
2019-01-04T09:16:24.888Z,584.00
2019-01-04T09:17:24.881Z,488.00
2019-01-04T09:18:24.865Z,512.00
2019-01-04T09:19:24.852Z,556.00
2019-01-04T09:20:24.843Z,556.00
2019-01-04T09:21:24.831Z,544.00
2019-01-04T09:22:24.831Z,512.00
2019-01-04T09:23:24.812Z,500.00
2019-01-04T09:24:24.798Z,528.00
2019-01-04T09:25:24.790Z,508.00
2019-01-04T09:26:24.778Z,500.00
2019-01-04T09:27:24.775Z,516.00
2019-01-04T09:28:24.759Z,500.00
2019-01-04T09:29:24.752Z,420.00
2019-01-04T09:30:24.733Z,416.00
2019-01-04T09:31:24.724Z,388.00
2019-01-04T09:32:24.722Z,412.00
2019-01-04T09:33:24.701Z,456.00
2019-01-04T09:34:24.692Z,452.00
2019-01-04T09:35:24.680Z,472.00
2019-01-04T09:36:24.669Z,444.00
2019-01-04T09:37:24.669Z,364.00
2019-01-04T09:38:24.649Z,376.00
2019-01-04T09:39:24.638Z,356.00
2019-01-04T09:40:24.629Z,328.00
2019-01-04T09:41:24.616Z,316.00
2019-01-04T09:42:24.620Z,328.00
2019-01-04T09:43:24.596Z,320.00
2019-01-04T09:44:24.585Z,388.00
2019-01-04T09:45:24.581Z,392.00
2019-01-04T09:46:24.564Z,404.00
2019-01-04T09:47:24.559Z,416.00
2019-01-04T09:48:24.544Z,352.00
2019-01-04T09:49:24.529Z,332.00
2019-01-04T09:50:24.519Z,304.00
2019-01-04T09:51:24.509Z,284.00
2019-01-04T09:52:24.529Z,284.00
2019-01-04T09:53:24.490Z,352.00
2019-01-04T09:54:24.476Z,320.00
2019-01-04T09:55:24.471Z,356.00
2019-01-04T09:56:24.458Z,348.00
2019-01-04T09:57:24.506Z,352.00
2019-01-04T09:58:24.448Z,420.00
2019-01-04T09:59:24.422Z,408.00
2019-01-04T10:00:24.414Z,404.00
2019-01-04T10:01:24.402Z,392.00
2019-01-04T10:02:24.389Z,356.00
2019-01-04T10:03:24.391Z,412.00
2019-01-04T10:04:24.369Z,388.00
2019-01-04T10:05:24.359Z,416.00
2019-01-04T10:06:24.348Z,412.00
2019-01-04T10:07:24.337Z,404.00
2019-01-04T10:08:24.337Z,404.00
2019-01-04T10:09:24.315Z,468.00
2019-01-04T10:10:24.306Z,544.00
2019-01-04T10:11:24.294Z,540.00
2019-01-04T10:12:24.283Z,492.00
2019-01-04T10:13:24.284Z,380.00
2019-01-04T10:14:24.261Z,364.00
2019-01-04T10:15:24.253Z,352.00
2019-01-04T10:16:24.239Z,392.00
2019-01-04T10:17:24.229Z,420.00
2019-01-04T10:18:24.255Z,356.00
2019-01-04T10:19:24.208Z,364.00
2019-01-04T10:20:24.201Z,400.00
2019-01-04T10:21:24.186Z,396.00
2019-01-04T10:22:24.178Z,448.00
2019-01-04T10:23:24.165Z,540.00
2019-01-04T10:24:24.163Z,456.00
2019-01-04T10:25:24.145Z,396.00
2019-01-04T10:26:24.131Z,432.00
2019-01-04T10:27:24.123Z,492.00
2019-01-04T10:28:24.110Z,468.00
2019-01-04T10:29:24.115Z,444.00
2019-01-04T10:30:24.088Z,412.00
2019-01-04T10:31:24.078Z,464.00
2019-01-04T10:32:24.071Z,480.00
2019-01-04T10:33:24.057Z,428.00
2019-01-04T10:34:24.058Z,452.00
2019-01-04T10:35:24.034Z,448.00
2019-01-04T10:36:24.025Z,452.00
2019-01-04T10:37:24.022Z,436.00
2019-01-04T10:38:24.002Z,424.00
2019-01-04T10:39:24.002Z,404.00
2019-01-04T10:40:23.988Z,376.00
2019-01-04T10:41:23.973Z,344.00
2019-01-04T10:42:23.960Z,368.00
2019-01-04T10:43:23.950Z,444.00
2019-01-04T10:44:23.961Z,540.00
2019-01-04T10:45:23.931Z,524.00
2019-01-04T10:46:23.915Z,408.00
2019-01-04T10:47:23.906Z,408.00
2019-01-04T10:48:23.894Z,368.00
2019-01-04T10:49:23.892Z,448.00
2019-01-04T10:50:23.877Z,444.00
2019-01-04T10:51:23.866Z,384.00
2019-01-04T10:52:24.146Z,388.00
2019-01-04T10:53:23.842Z,464.00
2019-01-04T10:54:23.855Z,484.00
2019-01-04T10:55:23.824Z,516.00
2019-01-04T10:56:23.811Z,528.00
2019-01-04T10:57:23.803Z,512.00
2019-01-04T10:58:23.789Z,460.00
2019-01-04T10:59:23.777Z,432.00
2019-01-04T11:00:23.775Z,440.00
2019-01-04T11:01:23.757Z,412.00
2019-01-04T11:02:23.744Z,404.00
2019-01-04T11:03:23.732Z,500.00
2019-01-04T11:04:23.723Z,460.00
2019-01-04T11:05:23.719Z,480.00
2019-01-04T11:06:23.700Z,468.00
2019-01-04T11:07:23.710Z,480.00
2019-01-04T11:08:23.678Z,464.00
2019-01-04T11:09:23.669Z,488.00
2019-01-04T11:10:23.673Z,496.00
2019-01-04T11:11:23.649Z,520.00
2019-01-04T11:12:23.635Z,748.00
2019-01-04T11:13:23.627Z,620.00
2019-01-04T11:14:23.616Z,508.00
2019-01-04T11:15:23.611Z,536.00
2019-01-04T11:16:23.593Z,520.00
2019-01-04T11:17:23.583Z,532.00
2019-01-04T11:18:23.570Z,508.00
2019-01-04T11:19:23.561Z,588.00
2019-01-04T11:20:23.556Z,552.00
2019-01-04T11:21:23.540Z,468.00
2019-01-04T11:22:23.527Z,448.00
2019-01-04T11:23:23.517Z,448.00
2019-01-04T11:24:23.508Z,508.00
2019-01-04T11:25:23.505Z,472.00
2019-01-04T11:26:23.484Z,572.00
2019-01-04T11:27:23.476Z,548.00
2019-01-04T11:28:23.463Z,496.00
2019-01-04T11:29:23.451Z,512.00
2019-01-04T11:30:23.451Z,532.00
2019-01-04T11:31:23.431Z,512.00
2019-01-04T11:32:23.449Z,484.00
2019-01-04T11:33:23.408Z,488.00
2019-01-04T11:34:23.408Z,540.00
2019-01-04T11:35:23.415Z,528.00
2019-01-04T11:36:23.377Z,560.00
2019-01-04T11:37:23.366Z,584.00
2019-01-04T11:38:23.354Z,684.00
2019-01-04T11:39:23.344Z,664.00
2019-01-04T11:40:23.335Z,604.00
2019-01-04T11:41:23.333Z,616.00
2019-01-04T11:42:23.315Z,612.00
2019-01-04T11:43:23.305Z,664.00
2019-01-04T11:44:23.293Z,532.00
2019-01-04T11:45:23.280Z,532.00
2019-01-04T11:46:23.280Z,528.00
2019-01-04T11:47:23.268Z,516.00
2019-01-04T11:48:23.248Z,460.00
2019-01-04T11:49:23.239Z,460.00
2019-01-04T11:50:23.226Z,440.00
2019-01-04T11:51:23.225Z,404.00
2019-01-04T11:52:23.206Z,420.00
2019-01-04T11:53:23.198Z,384.00
2019-01-04T11:54:23.191Z,428.00
2019-01-04T11:55:23.177Z,380.00
2019-01-04T11:56:23.171Z,372.00
2019-01-04T11:57:23.151Z,388.00
2019-01-04T11:58:23.142Z,336.00
2019-01-04T11:59:23.136Z,308.00
2019-01-04T12:00:23.119Z,356.00
2019-01-04T12:01:23.120Z,348.00
2019-01-04T12:02:26.352Z,308.00
2019-01-04T12:03:23.087Z,288.00
2019-01-04T12:04:23.076Z,296.00
2019-01-04T12:05:23.067Z,288.00
2019-01-04T12:06:23.066Z,336.00
2019-01-04T12:07:23.042Z,364.00
2019-01-04T12:08:23.032Z,400.00
2019-01-04T12:09:23.021Z,628.00
2019-01-04T12:10:23.011Z,476.00
2019-01-04T12:11:23.014Z,412.00
2019-01-04T12:12:22.989Z,308.00
2019-01-04T12:13:22.978Z,392.00
2019-01-04T12:14:23.005Z,344.00
2019-01-04T12:15:22.957Z,380.00
2019-01-04T12:16:22.975Z,328.00
2019-01-04T12:17:22.935Z,316.00
2019-01-04T12:18:22.927Z,372.00
2019-01-04T12:19:22.913Z,388.00
2019-01-04T12:20:22.902Z,312.00
2019-01-04T12:21:22.892Z,264.00
2019-01-04T12:22:22.890Z,252.00
2019-01-04T12:23:22.883Z,220.00
2019-01-04T12:24:22.864Z,224.00
2019-01-04T12:25:22.848Z,200.00
2019-01-04T12:26:22.837Z,220.00
2019-01-04T12:27:22.837Z,272.00
2019-01-04T12:28:22.824Z,304.00
2019-01-04T12:29:22.806Z,288.00
2019-01-04T12:30:22.794Z,284.00
2019-01-04T12:31:22.784Z,212.00
2019-01-04T12:32:22.783Z,196.00
2019-01-04T12:33:22.765Z,196.00
2019-01-04T12:34:22.750Z,236.00
2019-01-04T12:35:22.739Z,300.00
2019-01-04T12:36:22.729Z,276.00
2019-01-04T12:37:22.751Z,240.00
2019-01-04T12:38:22.708Z,252.00
2019-01-04T12:39:22.697Z,264.00
2019-01-04T12:40:22.686Z,284.00
2019-01-04T12:41:22.678Z,332.00
2019-01-04T12:42:22.664Z,316.00
2019-01-04T12:43:22.662Z,320.00
2019-01-04T12:44:22.645Z,308.00
2019-01-04T12:45:22.633Z,332.00
2019-01-04T12:46:22.622Z,316.00
2019-01-04T12:47:22.613Z,312.00
2019-01-04T12:48:22.608Z,304.00
2019-01-04T12:49:22.589Z,296.00
2019-01-04T12:50:22.578Z,304.00
2019-01-04T12:51:22.569Z,280.00
2019-01-04T12:52:22.560Z,292.00
2019-01-04T12:53:22.555Z,280.00
2019-01-04T12:54:22.535Z,320.00
2019-01-04T12:55:22.524Z,332.00
2019-01-04T12:56:22.513Z,320.00